Time;durP1;ratioP1;P1;durP2;ratioP2;P2;SDS_P1;SDS_P2;PMS_P1;PMS_P2;Temp;Humidity;BMP_temperature;BMP_pressure;BME280_temperature;BME280_humidity;BME280_pressure;Samples;Min_cycle;Max_cycle;Signal;HPM_P1;HPM_P2
2023/01/14 00:01:23;;;;;;;7.05;1.85;;;18.50;46.80;;;;;;5112538;28;20642;-71
2023/01/14 00:03:52;;;;;;;5.40;2.33;;;18.50;46.90;;;;;;5112908;28;20185;-71
2023/01/14 00:06:23;;;;;;;6.70;2.00;;;18.50;46.90;;;;;;5112063;28;20254;-71
2023/01/14 00:08:54;;;;;;;6.35;1.95;;;18.50;46.90;;;;;;5112948;28;20254;-71
2023/01/14 00:11:45;;;;;;;5.85;2.10;;;18.50;47.00;;;;;;5111463;28;20686;-71
2023/01/14 00:14:10;;;;;;;3.83;1.42;;;18.50;47.10;;;;;;5112511;28;20593;-71
2023/01/14 00:16:37;;;;;;;4.43;1.60;;;18.50;47.10;;;;;;5112500;28;20192;-71
2023/01/14 00:19:06;;;;;;;6.47;1.98;;;18.50;47.10;;;;;;5112720;28;20193;-71
2023/01/14 00:21:33;;;;;;;4.80;1.85;;;18.50;47.10;;;;;;5112009;28;20189;-71
2023/01/14 00:24:00;;;;;;;4.35;1.80;;;18.50;47.80;;;;;;5112560;28;20193;-71
2023/01/14 00:26:28;;;;;;;3.47;1.45;;;18.50;47.10;;;;;;5112367;28;20177;-71
2023/01/14 00:28:55;;;;;;;4.75;2.05;;;18.50;47.20;;;;;;5111521;28;20193;-71
2023/01/14 00:31:24;;;;;;;3.83;1.80;;;18.50;47.90;;;;;;5112634;28;20230;-71
2023/01/14 00:33:51;;;;;;;4.78;1.85;;;18.50;47.30;;;;;;5111433;28;20236;-71
2023/01/14 00:36:22;;;;;;;4.70;1.95;;;18.50;47.30;;;;;;5111862;28;20246;-71
2023/01/14 00:38:50;;;;;;;5.03;1.77;;;18.40;47.20;;;;;;5113045;28;20595;-71
2023/01/14 00:41:20;;;;;;;4.03;1.52;;;18.50;47.30;;;;;;5112537;28;20209;-71
2023/01/14 00:43:49;;;;;;;4.57;1.30;;;18.50;47.30;;;;;;5111766;28;20284;-71
2023/01/14 00:46:26;;;;;;;7.07;1.80;;;18.40;47.30;;;;;;5111707;28;20213;-71
2023/01/14 00:48:53;;;;;;;3.83;1.60;;;18.40;47.30;;;;;;5112425;28;20205;-71
2023/01/14 00:51:23;;;;;;;3.13;1.70;;;18.40;47.30;;;;;;5111884;28;20285;-71
2023/01/14 00:53:50;;;;;;;3.75;1.40;;;18.40;47.40;;;;;;5112281;28;20270;-71
2023/01/14 00:56:19;;;;;;;4.00;1.52;;;18.40;47.40;;;;;;5111993;28;20213;-71
2023/01/14 00:58:46;;;;;;;5.55;2.00;;;18.40;47.50;;;;;;5112372;28;20185;-71
2023/01/14 01:01:14;;;;;;;4.85;1.45;;;18.40;47.50;;;;;;5112994;28;20706;-71
2023/01/14 01:03:43;;;;;;;2.63;1.35;;;18.40;47.50;;;;;;5116440;28;20186;-71
2023/01/14 01:06:11;;;;;;;5.70;1.80;;;18.40;47.50;;;;;;5115318;28;20242;-71
2023/01/14 01:08:40;;;;;;;5.30;1.77;;;18.40;47.50;;;;;;5116359;28;20263;-71
2023/01/14 01:11:08;;;;;;;4.00;1.75;;;18.40;47.50;;;;;;5116247;28;20262;-71
2023/01/14 01:13:36;;;;;;;7.07;1.80;;;18.40;47.50;;;;;;5115667;28;20644;-71
2023/01/14 01:16:05;;;;;;;4.07;1.65;;;18.40;47.60;;;;;;5115945;28;20270;-71
2023/01/14 01:18:32;;;;;;;4.82;1.40;;;18.40;47.60;;;;;;5116027;28;20185;-71
2023/01/14 01:21:03;;;;;;;4.82;1.63;;;18.40;47.60;;;;;;5115168;28;20306;-71
2023/01/14 01:23:31;;;;;;;2.63;1.33;;;18.40;47.70;;;;;;5115904;28;20598;-71
2023/01/14 01:26:03;;;;;;;3.33;1.27;;;18.40;47.70;;;;;;5115409;28;20217;-71
2023/01/14 01:28:31;;;;;;;3.55;1.50;;;18.40;47.70;;;;;;5115757;28;20181;-71
2023/01/14 01:31:01;;;;;;;5.13;1.55;;;18.40;47.70;;;;;;5115512;28;20270;-71
2023/01/14 01:33:29;;;;;;;3.40;1.60;;;18.30;47.70;;;;;;5115661;28;20223;-71
2023/01/14 01:36:00;;;;;;;6.18;1.67;;;18.40;47.80;;;;;;5114818;28;20265;-71
2023/01/14 01:38:27;;;;;;;4.38;1.60;;;18.40;47.80;;;;;;5115650;28;20283;-71
2023/01/14 01:40:55;;;;;;;3.42;1.50;;;18.30;47.80;;;;;;5115364;28;20289;-71
2023/01/14 01:43:26;;;;;;;2.67;1.40;;;18.40;47.90;;;;;;5115824;28;20181;-71
2023/01/14 01:45:53;;;;;;;4.70;1.52;;;18.30;47.80;;;;;;5115429;28;20262;-71
2023/01/14 01:48:24;;;;;;;4.93;1.60;;;18.30;47.90;;;;;;5115538;28;20201;-71
2023/01/14 01:50:58;;;;;;;3.40;1.40;;;18.30;47.90;;;;;;5114423;28;20217;-71
2023/01/14 01:53:26;;;;;;;2.75;1.20;;;18.30;48.00;;;;;;5115318;28;20221;-71
2023/01/14 01:55:56;;;;;;;3.50;1.50;;;18.30;48.00;;;;;;5116649;28;20225;-71
2023/01/14 01:58:27;;;;;;;3.05;1.40;;;18.30;48.00;;;;;;5115232;28;20189;-71
2023/01/14 02:00:54;;;;;;;3.50;1.50;;;18.30;48.00;;;;;;5115182;28;20239;-71
2023/01/14 02:03:27;;;;;;;3.15;1.23;;;18.30;48.00;;;;;;5114626;28;20709;-71
2023/01/14 02:05:54;;;;;;;3.70;1.42;;;18.30;48.00;;;;;;5114081;28;20216;-71
2023/01/14 02:08:22;;;;;;;3.75;1.60;;;18.30;48.00;;;;;;5114908;28;20647;-71
2023/01/14 02:11:14;;;;;;;3.15;1.38;;;18.30;48.00;;;;;;5115037;28;20690;-71
2023/01/14 02:13:54;;;;;;;6.28;1.35;;;18.20;48.00;;;;;;5114370;28;20273;-71
2023/01/14 02:16:33;;;;;;;3.45;1.40;;;18.30;48.10;;;;;;5114775;28;20266;-71
2023/01/14 02:19:17;;;;;;;3.88;1.10;;;18.30;48.20;;;;;;5114164;28;20211;-71
2023/01/14 02:21:48;;;;;;;3.15;1.30;;;18.20;48.10;;;;;;5114527;28;20189;-71
2023/01/14 02:24:48;;;;;;;5.50;1.70;;;18.20;48.20;;;;;;5114700;28;20204;-71
2023/01/14 02:27:37;;;;;;;2.80;1.35;;;18.20;48.20;;;;;;5114591;28;20235;-71
2023/01/14 02:30:36;;;;;;;5.05;1.80;;;18.30;48.30;;;;;;5114384;28;20629;-71
2023/01/14 02:33:11;;;;;;;3.22;1.65;;;18.20;48.30;;;;;;5114355;28;20212;-71
2023/01/14 02:35:43;;;;;;;3.17;1.33;;;18.30;48.30;;;;;;5113827;28;20212;-71
2023/01/14 02:38:27;;;;;;;5.55;1.65;;;18.20;48.30;;;;;;5114521;28;20189;-71
2023/01/14 02:41:01;;;;;;;4.47;1.75;;;18.20;48.40;;;;;;5114224;28;20213;-71
2023/01/14 02:46:26;;;;;;;4.53;1.73;;;18.20;48.40;;;;;;5114064;28;20207;-71
2023/01/14 02:48:56;;;;;;;4.68;1.50;;;18.20;48.40;;;;;;5113562;28;20596;-71
2023/01/14 02:51:23;;;;;;;6.78;1.65;;;18.20;48.40;;;;;;5114221;28;20221;-71
2023/01/14 02:53:51;;;;;;;5.93;1.50;;;18.20;48.50;;;;;;5114204;28;20209;-71
2023/01/14 02:56:18;;;;;;;6.60;1.50;;;18.20;48.50;;;;;;5114106;28;20762;-71
2023/01/14 02:59:08;;;;;;;3.92;1.48;;;18.20;48.50;;;;;;5113928;28;20703;-71
2023/01/14 03:02:09;;;;;;;6.70;2.33;;;18.20;48.60;;;;;;5113522;28;20224;-71
2023/01/14 03:04:50;;;;;;;7.55;1.67;;;18.20;48.60;;;;;;5091956;28;20220;-71
2023/01/14 03:07:23;;;;;;;3.90;1.38;;;18.20;48.60;;;;;;5112339;28;20385;-71
2023/01/14 03:10:00;;;;;;;4.82;1.60;;;18.20;48.60;;;;;;5113664;28;20220;-71
2023/01/14 03:12:36;;;;;;;7.10;1.83;;;18.20;48.70;;;;;;5113500;28;20283;-71
2023/01/14 03:15:14;;;;;;;3.97;1.75;;;18.20;48.70;;;;;;5113465;28;20636;-71
2023/01/14 03:17:47;;;;;;;6.72;1.67;;;18.20;48.70;;;;;;5113709;28;20264;-71
2023/01/14 03:20:18;;;;;;;6.30;1.48;;;18.20;48.80;;;;;;5112577;28;20694;-71
2023/01/14 03:22:47;;;;;;;3.85;1.33;;;18.10;48.70;;;;;;5113583;28;20192;-71
2023/01/14 03:25:17;;;;;;;6.55;1.80;;;18.10;48.80;;;;;;5111332;28;20695;-71
2023/01/14 03:27:47;;;;;;;3.95;1.63;;;18.20;48.80;;;;;;5113516;28;20205;-71
2023/01/14 03:30:19;;;;;;;7.43;1.60;;;18.10;48.80;;;;;;5113247;28;20759;-71
2023/01/14 03:32:53;;;;;;;5.55;1.77;;;18.20;48.90;;;;;;5113196;28;20643;-71
2023/01/14 03:35:24;;;;;;;6.68;1.90;;;18.20;48.90;;;;;;5112183;28;20246;-71
2023/01/14 03:37:56;;;;;;;6.63;2.15;;;18.10;48.90;;;;;;5113167;28;20186;-71
2023/01/14 03:40:25;;;;;;;4.82;1.75;;;18.20;48.90;;;;;;5113173;28;20270;-71
2023/01/14 03:42:59;;;;;;;7.82;2.05;;;18.10;48.90;;;;;;5113233;28;20182;-71
2023/01/14 03:45:29;;;;;;;4.63;1.70;;;18.10;48.90;;;;;;5113270;28;20288;-71
2023/01/14 03:47:58;;;;;;;6.88;2.28;;;18.10;48.90;;;;;;5112499;28;20189;-71
2023/01/14 03:50:32;;;;;;;9.27;2.05;;;18.10;49.00;;;;;;5112922;28;20213;-71
2023/01/14 03:53:12;;;;;;;6.05;1.95;;;18.10;49.00;;;;;;5113595;28;20749;-71
2023/01/14 03:55:48;;;;;;;9.00;1.92;;;18.10;49.00;;;;;;5112776;28;20274;-71
2023/01/14 03:58:23;;;;;;;6.43;1.85;;;18.10;49.00;;;;;;5112776;28;20252;-71
2023/01/14 04:00:56;;;;;;;6.28;1.73;;;18.10;49.10;;;;;;5111957;28;20220;-71
2023/01/14 04:03:27;;;;;;;6.88;1.70;;;18.10;49.10;;;;;;5111763;28;20239;-71
2023/01/14 04:05:55;;;;;;;9.65;2.05;;;18.10;49.10;;;;;;5113108;28;20212;-71
2023/01/14 04:08:24;;;;;;;8.40;1.90;;;18.10;49.10;;;;;;5112771;28;20215;-71
2023/01/14 04:10:51;;;;;;;8.50;2.50;;;18.10;49.10;;;;;;5112713;28;20277;-71
2023/01/14 04:16:04;;;;;;;10.57;2.17;;;18.10;49.20;;;;;;5112654;28;20301;-71
2023/01/14 04:18:33;;;;;;;8.85;2.33;;;18.10;49.30;;;;;;5111805;28;20695;-71
2023/01/14 04:21:00;;;;;;;8.63;2.30;;;18.10;49.30;;;;;;5112962;28;20217;-71
2023/01/14 04:23:27;;;;;;;8.68;2.28;;;18.10;49.30;;;;;;5112466;28;20672;-71
2023/01/14 04:25:58;;;;;;;12.13;2.72;;;18.10;49.40;;;;;;5112369;28;20208;-71
2023/01/14 04:28:25;;;;;;;6.47;1.95;;;18.10;49.40;;;;;;5112734;28;20181;-71
2023/01/14 04:30:53;;;;;;;8.13;2.05;;;18.00;49.30;;;;;;5112728;28;20221;-71
2023/01/14 04:33:20;;;;;;;7.60;1.92;;;18.00;49.20;;;;;;5111892;28;20607;-71
2023/01/14 04:35:49;;;;;;;6.13;2.13;;;18.00;49.20;;;;;;5114032;28;20290;-71
2023/01/14 04:38:16;;;;;;;8.40;1.80;;;18.10;49.40;;;;;;5116717;28;20254;-71
2023/01/14 04:40:43;;;;;;;10.48;2.25;;;18.00;49.30;;;;;;5116494;28;20217;-71
2023/01/14 04:43:09;;;;;;;7.40;2.10;;;18.00;49.20;;;;;;5116550;28;20212;-71
2023/01/14 04:45:37;;;;;;;9.82;2.17;;;18.10;49.30;;;;;;5116778;28;20819;-71
2023/01/14 04:48:04;;;;;;;7.65;2.10;;;18.00;49.20;;;;;;5116020;28;20272;-71
2023/01/14 04:50:34;;;;;;;6.75;2.03;;;18.00;49.30;;;;;;5116449;28;20742;-71
2023/01/14 04:53:08;;;;;;;9.27;2.13;;;18.00;49.30;;;;;;5117223;28;20593;-71
2023/01/14 04:55:38;;;;;;;8.15;2.05;;;18.10;49.40;;;;;;5116029;28;20708;-71
2023/01/14 04:58:05;;;;;;;9.63;1.90;;;18.00;49.20;;;;;;5116438;28;20192;-71
2023/01/14 05:00:33;;;;;;;9.95;2.10;;;18.00;49.30;;;;;;5116404;28;20228;-71
2023/01/14 05:03:03;;;;;;;7.07;2.10;;;18.00;49.90;;;;;;5115207;28;20221;-71
2023/01/14 05:05:30;;;;;;;10.57;2.30;;;18.00;49.30;;;;;;5116257;28;20312;-71
2023/01/14 05:07:57;;;;;;;7.97;2.15;;;18.00;49.20;;;;;;5115974;28;20663;-71
2023/01/14 05:10:27;;;;;;;8.32;2.10;;;18.00;49.30;;;;;;5115744;28;20274;-71
2023/01/14 05:12:57;;;;;;;8.45;2.10;;;18.00;49.20;;;;;;5116021;28;20186;-71
2023/01/14 05:15:26;;;;;;;5.97;1.90;;;18.00;49.30;;;;;;5115927;28;20228;-71
2023/01/14 05:17:53;;;;;;;7.57;1.95;;;18.00;49.30;;;;;;5114985;28;20740;-71
2023/01/14 05:20:21;;;;;;;10.35;2.53;;;18.00;49.30;;;;;;5116167;28;20277;-71
2023/01/14 05:22:48;;;;;;;6.50;1.92;;;18.00;49.30;;;;;;5114557;28;20619;-71
2023/01/14 05:25:15;;;;;;;9.05;1.83;;;18.00;49.30;;;;;;5115815;28;20265;-71
2023/01/14 05:27:44;;;;;;;7.47;2.17;;;18.00;49.30;;;;;;5115573;28;20193;-71
2023/01/14 05:30:11;;;;;;;7.47;2.08;;;18.00;49.40;;;;;;5115859;28;20216;-72
2023/01/14 05:32:38;;;;;;;6.28;2.00;;;18.00;49.40;;;;;;5115118;28;20502;-71
2023/01/14 05:35:06;;;;;;;6.90;1.90;;;18.00;49.50;;;;;;5115556;28;20286;-71
2023/01/14 05:37:34;;;;;;;8.77;2.28;;;17.90;49.50;;;;;;5115736;28;20189;-71
2023/01/14 05:40:02;;;;;;;7.55;1.80;;;18.00;49.60;;;;;;5115524;28;20590;-71
2023/01/14 05:48:01;;;;;;;8.10;1.92;;;18.00;49.60;;;;;;5113746;28;20176;-71
2023/01/14 05:50:28;;;;;;;6.82;1.85;;;18.00;49.60;;;;;;5115526;28;20217;-71
2023/01/14 05:52:55;;;;;;;7.22;2.25;;;18.10;49.70;;;;;;5115214;28;20189;-71
2023/01/14 05:55:22;;;;;;;8.13;2.00;;;18.00;49.60;;;;;;5114926;28;20571;-71
2023/01/14 05:57:49;;;;;;;5.30;1.70;;;18.00;49.60;;;;;;5115427;28;20243;-71
2023/01/14 06:08:33;;;;;;;7.40;1.90;;;18.10;49.70;;;;;;5115154;28;20185;-71
2023/01/14 06:11:00;;;;;;;7.80;1.92;;;18.20;49.80;;;;;;5115058;28;20222;-71
2023/01/14 06:13:28;;;;;;;8.50;2.33;;;18.20;49.80;;;;;;5115219;28;20193;-71
2023/01/14 06:15:56;;;;;;;7.38;2.20;;;18.20;49.80;;;;;;5114752;28;20233;-71
2023/01/14 06:18:24;;;;;;;8.43;1.90;;;18.20;49.80;;;;;;5114153;28;20272;-71
2023/01/14 06:20:52;;;;;;;6.70;2.03;;;18.20;49.80;;;;;;5114909;28;20217;-71
2023/01/14 06:23:21;;;;;;;3.50;1.35;;;18.20;49.80;;;;;;5114809;28;20193;-71
2023/01/14 06:25:49;;;;;;;4.68;1.77;;;18.20;49.80;;;;;;5114466;28;20349;-71
2023/01/14 06:28:17;;;;;;;5.45;1.67;;;18.30;49.90;;;;;;5114795;28;20186;-71
2023/01/14 06:30:44;;;;;;;6.18;1.63;;;18.30;49.90;;;;;;5114530;28;20217;-71
2023/01/14 06:33:13;;;;;;;6.40;1.83;;;18.30;49.90;;;;;;5113542;28;20181;-71
2023/01/14 06:35:45;;;;;;;4.28;1.50;;;18.30;49.90;;;;;;5113237;28;20281;-71
2023/01/14 06:38:13;;;;;;;6.70;1.70;;;18.30;49.90;;;;;;5115263;28;20201;-71
2023/01/14 06:40:41;;;;;;;5.30;1.65;;;18.30;49.90;;;;;;5114439;28;20624;-71
2023/01/14 06:43:10;;;;;;;2.83;1.30;;;18.30;49.90;;;;;;5114427;28;20239;-74
2023/01/14 06:45:37;;;;;;;4.97;1.63;;;18.40;50.00;;;;;;5114427;28;20690;-71
2023/01/14 06:48:04;;;;;;;3.25;1.20;;;18.40;50.00;;;;;;5113496;28;20189;-73
2023/01/14 06:50:33;;;;;;;4.88;1.20;;;18.40;50.00;;;;;;5114181;28;20224;-71
2023/01/14 06:53:02;;;;;;;6.55;1.50;;;18.40;50.00;;;;;;5114380;28;20189;-73
2023/01/14 06:55:29;;;;;;;4.80;1.67;;;18.40;50.00;;;;;;5113740;28;20233;-71
2023/01/14 06:57:56;;;;;;;5.43;1.42;;;18.40;50.00;;;;;;5113918;28;20607;-71
2023/01/14 07:00:23;;;;;;;4.90;1.52;;;18.40;50.00;;;;;;5114005;28;20269;-71
2023/01/14 07:02:50;;;;;;;3.45;1.35;;;18.50;50.10;;;;;;5113019;28;20233;-73
2023/01/14 07:05:17;;;;;;;3.95;1.40;;;18.50;50.00;;;;;;5113990;28;20217;-71
2023/01/14 07:07:57;;;;;;;4.63;1.40;;;18.50;50.00;;;;;;5113986;28;20181;-71
2023/01/14 07:10:24;;;;;;;5.35;1.40;;;18.50;50.10;;;;;;5113838;28;20212;-73
2023/01/14 07:12:53;;;;;;;4.28;1.10;;;18.50;50.10;;;;;;5113577;28;20595;-74
2023/01/14 07:15:22;;;;;;;3.38;1.27;;;18.50;50.00;;;;;;5113940;28;20277;-73
2023/01/14 07:17:50;;;;;;;3.75;1.50;;;18.50;50.10;;;;;;5113109;28;20269;-72
2023/01/14 07:20:18;;;;;;;5.07;1.42;;;18.60;50.10;;;;;;5113579;28;20554;-71
2023/01/14 07:22:45;;;;;;;4.80;1.27;;;18.50;50.00;;;;;;5113687;28;20238;-74
2023/01/14 07:25:13;;;;;;;4.07;1.40;;;18.50;50.10;;;;;;5113292;28;20304;-71
2023/01/14 07:27:40;;;;;;;5.57;1.65;;;18.50;50.00;;;;;;5114038;28;20242;-73
2023/01/14 07:30:09;;;;;;;5.63;1.58;;;18.60;50.10;;;;;;5113163;28;20694;-73
2023/01/14 07:32:36;;;;;;;3.05;1.40;;;18.60;50.10;;;;;;5112468;28;20189;-74
2023/01/14 07:35:03;;;;;;;4.93;1.50;;;18.60;50.10;;;;;;5113286;28;20233;-73
2023/01/14 07:37:30;;;;;;;5.32;1.40;;;18.60;50.10;;;;;;5113574;28;20638;-73
2023/01/14 07:39:57;;;;;;;3.30;1.48;;;18.60;50.10;;;;;;5113358;28;20238;-74
2023/01/14 07:42:26;;;;;;;3.80;1.38;;;18.60;50.10;;;;;;5113394;28;20193;-73
2023/01/14 07:44:53;;;;;;;5.50;1.70;;;18.60;50.10;;;;;;5113369;28;20220;-73
2023/01/14 07:47:20;;;;;;;4.35;0.93;;;18.60;50.10;;;;;;5113364;28;20711;-74
2023/01/14 07:49:47;;;;;;;3.97;1.35;;;18.60;50.10;;;;;;5113359;28;20532;-73
2023/01/14 07:52:14;;;;;;;4.35;1.25;;;18.60;50.10;;;;;;5112953;28;20239;-73
2023/01/14 07:54:42;;;;;;;2.72;1.38;;;18.70;50.20;;;;;;5113128;28;20217;-74
2023/01/14 07:57:10;;;;;;;5.07;1.45;;;18.70;50.20;;;;;;5112985;28;20262;-73
2023/01/14 07:59:39;;;;;;;4.30;1.30;;;18.70;50.20;;;;;;5113050;28;20193;-74
2023/01/14 08:02:11;;;;;;;4.47;1.55;;;18.70;50.20;;;;;;5110638;28;20294;-74
2023/01/14 08:04:38;;;;;;;7.43;1.40;;;18.70;50.20;;;;;;5113123;28;20190;-74
2023/01/14 08:07:06;;;;;;;5.68;1.52;;;18.70;50.20;;;;;;5112957;28;20254;-74
2023/01/14 08:09:33;;;;;;;5.20;1.80;;;18.70;50.30;;;;;;5112733;28;20600;-74
2023/01/14 08:12:00;;;;;;;6.15;1.45;;;18.70;50.30;;;;;;5113288;28;20213;-73
2023/01/14 08:14:28;;;;;;;4.32;1.35;;;18.70;50.30;;;;;;5112738;28;20639;-73
2023/01/14 08:16:56;;;;;;;7.28;1.38;;;18.70;50.30;;;;;;5110695;28;20252;-74
2023/01/14 08:19:23;;;;;;;4.78;1.50;;;18.70;50.30;;;;;;5113018;28;20194;-74
2023/01/14 08:21:50;;;;;;;4.72;1.50;;;18.70;50.30;;;;;;5112968;28;20575;-74
2023/01/14 08:24:17;;;;;;;6.28;1.50;;;18.70;50.30;;;;;;5112672;28;20186;-74
2023/01/14 08:26:44;;;;;;;5.82;1.67;;;18.80;50.40;;;;;;5113089;28;20275;-74
2023/01/14 08:29:12;;;;;;;7.75;1.50;;;18.80;50.40;;;;;;5112733;28;20234;-73
2023/01/14 08:31:40;;;;;;;4.18;1.63;;;18.80;50.40;;;;;;5111686;28;20217;-73
2023/01/14 08:34:08;;;;;;;3.25;1.30;;;18.80;50.40;;;;;;5112812;28;20186;-74
2023/01/14 08:36:35;;;;;;;6.13;1.60;;;18.80;50.40;;;;;;5112818;28;20233;-74
2023/01/14 08:39:03;;;;;;;4.28;1.83;;;18.80;50.40;;;;;;5112433;28;20642;-74
2023/01/14 08:41:30;;;;;;;6.53;1.60;;;18.80;50.40;;;;;;5112592;28;20262;-71
2023/01/14 08:43:57;;;;;;;6.55;1.70;;;18.80;50.40;;;;;;5112994;28;20273;-71
2023/01/14 08:46:24;;;;;;;3.90;1.40;;;18.80;50.40;;;;;;5110345;28;20292;-71
2023/01/14 08:48:52;;;;;;;5.00;1.65;;;18.80;50.40;;;;;;5112663;28;20189;-74
2023/01/14 08:51:26;;;;;;;4.90;1.50;;;18.80;50.40;;;;;;5113042;28;20221;-73
2023/01/14 08:53:55;;;;;;;5.78;1.63;;;18.80;50.40;;;;;;5113110;28;20208;-74
2023/01/14 08:56:22;;;;;;;6.60;1.70;;;18.80;50.40;;;;;;5112567;28;20228;-73
2023/01/14 08:58:49;;;;;;;4.28;1.92;;;18.80;50.40;;;;;;5113217;28;20604;-71
2023/01/14 09:01:16;;;;;;;4.35;1.50;;;18.80;50.40;;;;;;5111933;28;20217;-74
2023/01/14 09:03:45;;;;;;;3.75;1.30;;;18.90;50.50;;;;;;5112083;28;20235;-71
2023/01/14 09:06:15;;;;;;;4.95;1.55;;;18.90;50.50;;;;;;5112656;28;20223;-73
2023/01/14 09:17:10;;;;;;;4.60;1.55;;;18.90;50.60;;;;;;5111970;28;20256;-73
2023/01/14 09:19:40;;;;;;;3.78;1.52;;;18.90;50.60;;;;;;5112632;28;20561;-74
2023/01/14 09:22:10;;;;;;;4.47;1.60;;;18.90;50.60;;;;;;5112527;28;20220;-73
2023/01/14 09:24:38;;;;;;;3.80;1.50;;;18.90;50.60;;;;;;5116085;28;20193;-74
2023/01/14 09:27:06;;;;;;;3.33;1.30;;;18.90;50.60;;;;;;5115640;28;20217;-74
2023/01/14 09:29:33;;;;;;;3.75;1.40;;;18.90;50.60;;;;;;5115739;28;20185;-73
2023/01/14 09:32:00;;;;;;;2.97;1.40;;;18.90;50.60;;;;;;5115371;27;20619;-73
2023/01/14 09:34:27;;;;;;;4.50;1.27;;;18.90;50.60;;;;;;5115770;28;20189;-74
2023/01/14 09:36:55;;;;;;;4.40;1.27;;;18.90;50.60;;;;;;5114156;28;20278;-74
2023/01/14 09:39:22;;;;;;;3.70;1.38;;;18.90;50.60;;;;;;5115711;28;20246;-74
2023/01/14 09:41:57;;;;;;;2.65;1.30;;;19.00;50.80;;;;;;5115808;28;20569;-73
2023/01/14 09:44:25;;;;;;;2.78;1.35;;;18.90;50.60;;;;;;5115475;28;20187;-73
2023/01/14 09:46:53;;;;;;;3.47;1.30;;;18.90;50.70;;;;;;5115006;28;20224;-74
2023/01/14 09:49:23;;;;;;;4.22;1.55;;;19.00;50.70;;;;;;5114480;28;20232;-74
2023/01/14 09:52:13;;;;;;;3.63;1.35;;;19.00;50.80;;;;;;5116021;28;20217;-74
2023/01/14 09:54:50;;;;;;;5.47;1.25;;;18.90;50.80;;;;;;5033329;28;20200;-74
2023/01/14 09:57:25;;;;;;;3.40;1.27;;;18.90;50.80;;;;;;5032241;28;20227;-74
2023/01/14 10:00:00;;;;;;;2.70;1.00;;;19.00;51.50;;;;;;5032736;28;20191;-74
2023/01/14 10:02:35;;;;;;;3.28;1.40;;;19.00;50.90;;;;;;5031283;28;20286;-74
2023/01/14 10:05:19;;;;;;;2.63;1.20;;;19.00;50.90;;;;;;5032601;28;20192;-74
2023/01/14 10:07:47;;;;;;;4.32;1.38;;;19.00;50.90;;;;;;5032349;28;20251;-74
2023/01/14 10:10:25;;;;;;;3.50;1.40;;;19.00;50.90;;;;;;5031905;28;20193;-74
2023/01/14 10:12:54;;;;;;;2.45;1.23;;;19.00;50.90;;;;;;5032115;28;20202;-74
2023/01/14 10:15:33;;;;;;;3.10;1.30;;;19.00;50.90;;;;;;5032330;28;20262;-74
2023/01/14 10:18:06;;;;;;;2.28;1.25;;;19.00;50.90;;;;;;5031874;28;20196;-73
2023/01/14 10:20:37;;;;;;;2.10;1.10;;;19.00;50.90;;;;;;5031786;28;20220;-74
2023/01/14 10:23:12;;;;;;;3.47;1.40;;;19.00;50.90;;;;;;5031854;28;20192;-74
2023/01/14 10:25:43;;;;;;;3.30;1.15;;;19.00;51.00;;;;;;5031746;28;20310;-74
2023/01/14 10:28:16;;;;;;;2.53;1.20;;;19.00;51.00;;;;;;5032503;28;20688;-74
2023/01/14 10:30:45;;;;;;;3.75;1.27;;;19.00;51.00;;;;;;5034435;28;20250;-74
2023/01/14 10:33:15;;;;;;;4.03;1.20;;;19.00;51.00;;;;;;5113752;28;20239;-74
2023/01/14 10:35:45;;;;;;;3.08;1.48;;;19.00;51.00;;;;;;5114736;28;20225;-74
2023/01/14 10:38:17;;;;;;;2.15;1.10;;;19.00;51.00;;;;;;5114562;28;20185;-74
2023/01/14 10:40:46;;;;;;;3.90;1.38;;;19.00;51.00;;;;;;5114502;28;20209;-74
2023/01/14 10:43:25;;;;;;;1.80;1.02;;;19.00;51.00;;;;;;5113263;28;20272;-74
2023/01/14 10:45:52;;;;;;;3.90;1.10;;;19.00;51.00;;;;;;5113698;28;20232;-74
2023/01/14 10:48:21;;;;;;;2.45;1.25;;;19.00;51.00;;;;;;5114143;28;20197;-74
2023/01/14 10:50:49;;;;;;;1.27;0.90;;;19.00;51.00;;;;;;5114031;28;20274;-74
2023/01/14 10:53:19;;;;;;;3.63;1.20;;;19.00;51.00;;;;;;5113223;28;20223;-74
2023/01/14 10:55:53;;;;;;;3.67;1.30;;;19.00;51.00;;;;;;5113817;28;20229;-74
2023/01/14 10:58:28;;;;;;;3.13;1.10;;;19.00;51.10;;;;;;5114223;28;20239;-74
2023/01/14 11:01:03;;;;;;;2.58;1.02;;;19.10;51.20;;;;;;5113695;28;20274;-74
2023/01/14 11:03:32;;;;;;;2.53;1.17;;;19.10;51.20;;;;;;5114134;28;20232;-74
2023/01/14 11:06:02;;;;;;;2.22;0.98;;;19.00;51.10;;;;;;5113709;28;20311;-74
2023/01/14 11:08:34;;;;;;;2.72;1.20;;;19.00;51.10;;;;;;5113736;28;20701;-74
2023/01/14 11:11:05;;;;;;;3.78;1.55;;;19.10;51.20;;;;;;5114303;28;20893;-74
2023/01/14 11:13:36;;;;;;;3.45;1.20;;;19.10;51.20;;;;;;5112428;28;20556;-74
2023/01/14 11:16:04;;;;;;;3.67;1.10;;;19.10;51.20;;;;;;5113256;28;20319;-74
2023/01/14 11:18:34;;;;;;;1.70;1.05;;;19.10;51.30;;;;;;5113835;28;20254;-74
2023/01/14 11:21:09;;;;;;;2.60;1.33;;;19.10;51.30;;;;;;5114260;28;20217;-74
2023/01/14 11:23:38;;;;;;;1.90;1.10;;;19.10;51.30;;;;;;5113409;28;20234;-74
2023/01/14 11:26:10;;;;;;;2.17;1.08;;;19.10;51.30;;;;;;5113260;28;20763;-74
2023/01/14 11:28:43;;;;;;;1.80;0.90;;;19.10;51.30;;;;;;5113661;28;20189;-74
2023/01/14 11:31:11;;;;;;;2.95;1.17;;;19.10;51.30;;;;;;5112937;28;20277;-74
2023/01/14 11:33:50;;;;;;;2.22;1.10;;;19.10;51.30;;;;;;5113352;28;20235;-74
2023/01/14 11:36:23;;;;;;;3.08;1.20;;;19.10;51.30;;;;;;5113236;28;20232;-74
2023/01/14 11:38:51;;;;;;;3.63;1.30;;;19.10;51.40;;;;;;5113204;28;20366;-74
2023/01/14 11:41:32;;;;;;;2.85;1.10;;;19.10;51.40;;;;;;5113501;28;20213;-73
2023/01/14 11:44:02;;;;;;;4.80;1.20;;;19.10;51.40;;;;;;5113336;28;20189;-73
2023/01/14 11:46:30;;;;;;;1.75;0.98;;;19.10;51.40;;;;;;5111805;28;20658;-73
2023/01/14 11:49:02;;;;;;;1.95;1.00;;;19.10;51.40;;;;;;5112981;28;20234;-73
2023/01/14 11:51:30;;;;;;;2.35;1.05;;;19.10;51.50;;;;;;5113448;28;20220;-73
2023/01/14 11:53:57;;;;;;;2.50;0.90;;;19.10;51.50;;;;;;5112120;28;20257;-73
2023/01/14 11:56:33;;;;;;;1.90;1.08;;;19.10;51.40;;;;;;5112814;28;20225;-73
2023/01/14 11:59:11;;;;;;;3.03;1.30;;;19.10;51.40;;;;;;5113105;28;20238;-74
2023/01/14 12:01:43;;;;;;;2.17;0.80;;;19.10;51.50;;;;;;5111872;28;20733;-74
2023/01/14 12:04:16;;;;;;;2.20;0.85;;;19.10;51.50;;;;;;5113039;28;20197;-73
2023/01/14 12:06:47;;;;;;;3.65;1.15;;;19.10;51.50;;;;;;5112897;28;20227;-74
2023/01/14 12:09:21;;;;;;;1.88;0.77;;;19.20;51.60;;;;;;5112521;28;20643;-74
2023/01/14 12:11:57;;;;;;;1.65;1.00;;;19.20;51.70;;;;;;5112782;28;20702;-74
2023/01/14 12:17:24;;;;;;;2.20;0.80;;;19.10;51.60;;;;;;5112906;28;20236;-73
2023/01/14 12:19:55;;;;;;;2.33;0.80;;;19.10;51.70;;;;;;5112900;28;20192;-74
2023/01/14 12:22:27;;;;;;;1.92;0.80;;;19.20;51.70;;;;;;5113192;28;20213;-74
2023/01/14 12:25:05;;;;;;;4.50;1.10;;;19.10;51.70;;;;;;5112296;28;20639;-76
2023/01/14 12:27:43;;;;;;;4.25;1.30;;;19.20;52.20;;;;;;5112804;28;20223;-74
2023/01/14 12:30:32;;;;;;;6.07;1.40;;;19.20;52.70;;;;;;5112009;28;20250;-75
2023/01/14 12:33:04;;;;;;;2.53;1.00;;;19.20;53.00;;;;;;5112848;28;20246;-72
2023/01/14 12:35:35;;;;;;;2.67;0.85;;;19.20;53.50;;;;;;5112465;28;20200;-72
2023/01/14 12:45:41;;;;;;;4.22;1.20;;;19.20;53.70;;;;;;5112736;28;20224;-71
2023/01/14 12:46:37;;;;;;;5.93;1.27;;;19.30;54.50;;;;;;5094510;28;20350;-74
2023/01/14 12:49:06;;;;;;;7.30;1.13;;;19.30;54.50;;;;;;5111933;28;20605;-75
2023/01/14 12:51:37;;;;;;;5.13;1.10;;;19.30;55.00;;;;;;5112169;28;20213;-75
2023/01/14 12:54:07;;;;;;;4.03;1.00;;;19.30;55.00;;;;;;5106800;28;20189;-74
2023/01/14 12:56:37;;;;;;;5.68;1.30;;;19.40;55.00;;;;;;5112711;28;20281;-74
2023/01/14 12:59:08;;;;;;;10.73;1.40;;;19.40;56.20;;;;;;5115607;28;20189;-74
2023/01/14 13:01:42;;;;;;;19.55;1.60;;;19.40;55.30;;;;;;5107325;28;20316;-75
2023/01/14 13:04:19;;;;;;;17.13;1.60;;;19.50;55.20;;;;;;5109024;28;20193;-72
2023/01/14 13:06:52;;;;;;;29.55;2.67;;;19.40;55.10;;;;;;5099697;27;20225;-72
2023/01/14 13:09:23;;;;;;;31.27;2.38;;;19.50;55.50;;;;;;5115185;27;20201;-72
2023/01/14 13:11:55;;;;;;;12.02;1.95;;;19.50;56.10;;;;;;5102333;28;20631;-74
